Time;durP1;ratioP1;P1;durP2;ratioP2;P2;SDS_P1;SDS_P2;PMS_P1;PMS_P2;Temp;Humidity;BMP_temperature;BMP_pressure;BME280_temperature;BME280_humidity;BME280_pressure;Samples;Min_cycle;Max_cycle;Signal;HPM_P1;HPM_P2
2021/06/07 00:13:27;;;;;;;13.90;12.43;;;;;;;;;;6219480;22;20505;-96
2021/06/07 00:15:53;;;;;;;14.17;12.80;;;;;;;;;;6258496;23;20486;-96
2021/06/07 00:23:36;;;;;;;16.27;13.77;;;;;;;;;;6275066;22;20430;-96
2021/06/07 00:26:02;;;;;;;14.07;12.37;;;;;;;;;;6293441;22;20432;-96
2021/06/07 00:28:30;;;;;;;14.93;12.43;;;;;;;;;;6287775;22;20436;-96
2021/06/07 00:37:13;;;;;;;17.13;15.03;;;;;;;;;;6268318;22;20409;-95
2021/06/07 00:39:49;;;;;;;19.43;15.57;;;;;;;;;;6259817;23;20477;-96
2021/06/07 01:26:32;;;;;;;16.80;14.60;;;;;;;;;;6279400;22;20440;-96
2021/06/07 01:28:58;;;;;;;15.80;14.20;;;;;;;;;;6300376;22;21045;-96
2021/06/07 01:36:40;;;;;;;16.53;14.47;;;;;;;;;;6266846;22;20453;-96
2021/06/07 01:42:16;;;;;;;17.03;15.33;;;;;;;;;;6276460;22;20424;-96
2021/06/07 01:44:42;;;;;;;19.60;15.20;;;;;;;;;;6300388;22;20492;-96
2021/06/07 01:47:08;;;;;;;18.43;15.03;;;;;;;;;;6300874;22;20396;-96
2021/06/07 01:49:34;;;;;;;18.47;16.20;;;;;;;;;;6294256;22;20401;-96
2021/06/07 01:52:00;;;;;;;19.20;15.17;;;;;;;;;;6287845;22;20428;-96
2021/06/07 01:54:26;;;;;;;16.70;14.90;;;;;;;;;;6289202;22;20416;-96
2021/06/07 01:56:52;;;;;;;17.40;14.77;;;;;;;;;;6286791;22;20468;-95
2021/06/07 01:59:23;;;;;;;17.93;14.17;;;;;;;;;;6291976;22;20472;-96
2021/06/07 02:01:52;;;;;;;17.93;15.43;;;;;;;;;;6268837;22;20428;-96
2021/06/07 02:04:18;;;;;;;15.83;13.73;;;;;;;;;;6289681;22;20471;-96
2021/06/07 02:07:01;;;;;;;17.77;15.83;;;;;;;;;;6291459;22;20407;-96
2021/06/07 02:09:27;;;;;;;18.57;15.77;;;;;;;;;;6297814;22;20405;-96
2021/06/07 02:11:54;;;;;;;19.70;14.80;;;;;;;;;;6271057;22;20958;-96
2021/06/07 02:14:22;;;;;;;19.07;16.23;;;;;;;;;;6290578;22;20420;-96
2021/06/07 02:16:49;;;;;;;17.10;15.20;;;;;;;;;;6287415;22;20471;-96
2021/06/07 02:19:15;;;;;;;18.30;16.30;;;;;;;;;;6288637;22;20456;-96
2021/06/07 02:21:41;;;;;;;20.20;16.60;;;;;;;;;;6289446;22;20533;-96
2021/06/07 02:24:09;;;;;;;17.60;15.80;;;;;;;;;;6290909;22;20997;-96
2021/06/07 02:26:36;;;;;;;18.90;14.90;;;;;;;;;;6263859;22;20423;-96
2021/06/07 02:32:06;;;;;;;17.10;15.30;;;;;;;;;;6189875;22;21144;-96
2021/06/07 02:34:32;;;;;;;18.93;14.97;;;;;;;;;;6263486;22;20424;-96
2021/06/07 02:36:58;;;;;;;19.50;14.50;;;;;;;;;;6289991;22;20478;-96
2021/06/07 02:39:26;;;;;;;16.63;14.93;;;;;;;;;;6288089;22;20468;-96
2021/06/07 02:41:53;;;;;;;16.93;15.23;;;;;;;;;;6289137;22;20420;-96
2021/06/07 02:44:21;;;;;;;16.80;14.47;;;;;;;;;;6288093;22;20433;-96
2021/06/07 02:46:47;;;;;;;18.90;14.83;;;;;;;;;;6290804;22;20436;-96
2021/06/07 02:49:44;;;;;;;18.50;16.50;;;;;;;;;;6297665;22;20423;-96
2021/06/07 02:52:25;;;;;;;16.30;14.40;;;;;;;;;;6276151;22;20408;-96
2021/06/07 02:55:06;;;;;;;17.57;15.57;;;;;;;;;;6271081;22;20401;-96
2021/06/07 02:57:36;;;;;;;20.83;15.53;;;;;;;;;;6268921;22;20435;-96
2021/06/07 03:00:03;;;;;;;17.20;15.33;;;;;;;;;;6266004;22;20439;-96
2021/06/07 03:02:30;;;;;;;18.40;14.67;;;;;;;;;;6294810;22;20480;-96
2021/06/07 03:04:57;;;;;;;16.87;14.73;;;;;;;;;;6288878;22;20431;-96
2021/06/07 03:07:24;;;;;;;19.60;15.80;;;;;;;;;;6289171;22;20440;-96
2021/06/07 03:09:51;;;;;;;18.20;16.30;;;;;;;;;;6289045;22;20413;-96
2021/06/07 03:12:17;;;;;;;17.40;15.50;;;;;;;;;;6291454;22;20426;-96
2021/06/07 03:14:43;;;;;;;15.77;13.43;;;;;;;;;;6292206;22;20492;-96
2021/06/07 03:17:10;;;;;;;17.87;14.57;;;;;;;;;;6291693;22;20421;-96
2021/06/07 03:19:36;;;;;;;18.23;14.50;;;;;;;;;;6288312;22;20535;-96
2021/06/07 03:22:03;;;;;;;18.57;16.37;;;;;;;;;;6291043;22;20417;-96
2021/06/07 03:24:30;;;;;;;18.10;15.77;;;;;;;;;;6288989;22;20472;-96
2021/06/07 03:26:57;;;;;;;17.10;15.30;;;;;;;;;;6288794;22;20431;-96
2021/06/07 03:29:24;;;;;;;22.30;16.07;;;;;;;;;;6290450;22;20432;-96
2021/06/07 03:31:50;;;;;;;21.40;17.23;;;;;;;;;;6288071;22;20467;-96
2021/06/07 03:34:17;;;;;;;15.80;14.17;;;;;;;;;;6288882;22;20436;-96
2021/06/07 03:36:43;;;;;;;20.37;15.50;;;;;;;;;;6297261;22;20477;-96
2021/06/07 03:39:09;;;;;;;19.50;15.30;;;;;;;;;;6290594;22;20454;-96
2021/06/07 03:41:37;;;;;;;15.87;14.20;;;;;;;;;;6288653;22;20543;-96
2021/06/07 03:44:04;;;;;;;20.50;15.40;;;;;;;;;;6290381;22;20416;-96
2021/06/07 03:46:30;;;;;;;19.50;15.40;;;;;;;;;;6287664;22;20496;-96
2021/06/07 03:52:06;;;;;;;20.97;17.20;;;;;;;;;;6262508;22;20397;-96
2021/06/07 03:57:38;;;;;;;19.33;16.23;;;;;;;;;;6297344;22;20407;-96
2021/06/07 04:32:23;;;;;;;20.97;16.80;;;;;;;;;;6169196;23;20497;-96
2021/06/07 04:34:51;;;;;;;18.40;16.57;;;;;;;;;;6206992;23;20403;-96
2021/06/07 04:39:53;;;;;;;17.90;16.07;;;;;;;;;;6164482;22;20434;-96
2021/06/07 04:42:19;;;;;;;20.17;16.33;;;;;;;;;;6269213;22;20425;-96
2021/06/07 04:55:08;;;;;;;19.17;17.10;;;;;;;;;;6246896;22;20496;-96
2021/06/07 04:57:37;;;;;;;21.07;17.27;;;;;;;;;;6262451;23;20409;-96
2021/06/07 05:00:10;;;;;;;20.70;17.27;;;;;;;;;;6264947;23;20527;-96
2021/06/07 05:02:42;;;;;;;19.03;16.90;;;;;;;;;;6269304;23;20393;-96
2021/06/07 05:05:10;;;;;;;19.47;17.37;;;;;;;;;;6262370;23;20440;-96
2021/06/07 05:13:20;;;;;;;18.27;16.47;;;;;;;;;;6260753;22;20483;-96
2021/06/07 05:15:48;;;;;;;19.60;17.50;;;;;;;;;;6272683;22;20404;-96
2021/06/07 05:18:15;;;;;;;18.00;16.20;;;;;;;;;;6268308;23;20829;-96
2021/06/07 05:21:06;;;;;;;19.37;16.43;;;;;;;;;;6269987;23;20410;-96
2021/06/07 05:23:36;;;;;;;17.60;15.70;;;;;;;;;;6266725;23;20405;-96
2021/06/07 05:26:03;;;;;;;18.80;16.87;;;;;;;;;;6259187;23;20429;-96
2021/06/07 05:28:52;;;;;;;22.03;16.70;;;;;;;;;;6259557;23;20497;-96
2021/06/07 05:31:20;;;;;;;24.07;17.60;;;;;;;;;;6235487;23;20422;-96
2021/06/07 05:37:23;;;;;;;24.50;17.67;;;;;;;;;;6237239;22;20421;-96
2021/06/07 05:40:17;;;;;;;19.07;17.07;;;;;;;;;;6212633;22;20484;-96
2021/06/07 05:51:27;;;;;;;19.00;17.07;;;;;;;;;;6215404;23;20476;-96
2021/06/07 06:12:34;;;;;;;20.17;17.97;;;;;;;;;;6278409;22;20458;-96
2021/06/07 06:17:35;;;;;;;19.00;17.00;;;;;;;;;;6281056;22;20480;-96
2021/06/07 06:20:03;;;;;;;17.13;15.33;;;;;;;;;;6293707;22;20505;-95
2021/06/07 06:22:32;;;;;;;19.33;17.40;;;;;;;;;;6297916;22;20430;-96
2021/06/07 06:33:09;;;;;;;16.97;15.43;;;;;;;;;;6265308;22;20458;-95
2021/06/07 06:38:41;;;;;;;20.00;16.70;;;;;;;;;;6241390;22;20453;-95
2021/06/07 06:44:01;;;;;;;17.47;15.67;;;;;;;;;;6277194;22;20429;-96
2021/06/07 06:46:30;;;;;;;17.60;15.80;;;;;;;;;;6270475;22;20389;-96
2021/06/07 06:48:56;;;;;;;17.83;16.00;;;;;;;;;;6252351;22;20446;-95
2021/06/07 06:51:23;;;;;;;18.70;16.83;;;;;;;;;;6253027;22;20592;-96
2021/06/07 06:59:20;;;;;;;17.77;15.60;;;;;;;;;;6235542;22;20468;-96
2021/06/07 07:01:46;;;;;;;17.53;15.77;;;;;;;;;;6267626;22;20468;-96
2021/06/07 07:04:51;;;;;;;17.27;15.57;;;;;;;;;;6268091;23;20409;-96
2021/06/07 07:07:37;;;;;;;19.83;17.73;;;;;;;;;;6266472;23;20402;-96
2021/06/07 07:52:44;;;;;;;19.47;17.67;;;;;;;;;;6254728;22;20453;-96
2021/06/07 07:55:14;;;;;;;18.40;16.63;;;;;;;;;;6225916;22;20476;-96
2021/06/07 07:57:53;;;;;;;17.83;16.13;;;;;;;;;;6232402;22;20460;-96
2021/06/07 08:00:27;;;;;;;20.57;18.67;;;;;;;;;;6269896;23;20389;-96
2021/06/07 08:03:16;;;;;;;19.73;17.03;;;;;;;;;;6264369;22;20419;-96
2021/06/07 08:06:21;;;;;;;21.20;19.10;;;;;;;;;;6260970;23;20418;-96
2021/06/07 08:22:05;;;;;;;24.03;21.53;;;;;;;;;;6263987;22;20459;-96
2021/06/07 08:24:58;;;;;;;23.63;21.17;;;;;;;;;;6264087;22;20467;-96
2021/06/07 08:27:26;;;;;;;21.60;19.50;;;;;;;;;;6300189;22;20412;-96
2021/06/07 08:29:53;;;;;;;21.80;19.70;;;;;;;;;;6296979;22;20428;-96
2021/06/07 08:32:31;;;;;;;25.77;20.67;;;;;;;;;;6301093;22;20427;-96
2021/06/07 08:53:20;;;;;;;22.83;20.53;;;;;;;;;;6210762;22;20436;-96
2021/06/07 08:55:53;;;;;;;23.30;20.07;;;;;;;;;;6300738;22;20963;-96
2021/06/07 08:58:31;;;;;;;24.17;21.60;;;;;;;;;;6302529;22;20428;-96
2021/06/07 09:40:23;;;;;;;27.70;23.43;;;;;;;;;;6176357;23;20371;-96
2021/06/07 09:48:34;;;;;;;23.10;20.70;;;;;;;;;;6238550;22;20544;-96
2021/06/07 09:53:43;;;;;;;23.73;21.13;;;;;;;;;;6259105;22;20449;-96
2021/06/07 10:10:01;;;;;;;20.93;18.70;;;;;;;;;;6264633;22;20238;-96
2021/06/07 10:12:39;;;;;;;20.00;18.10;;;;;;;;;;6257653;22;20453;-96
2021/06/07 10:20:53;;;;;;;20.57;18.60;;;;;;;;;;6271646;22;20434;-93
2021/06/07 10:23:28;;;;;;;20.87;18.87;;;;;;;;;;6264469;22;20709;-96
2021/06/07 10:25:56;;;;;;;20.70;18.67;;;;;;;;;;6172495;22;21536;-94
2021/06/07 10:28:24;;;;;;;20.70;18.80;;;;;;;;;;6268418;22;20431;-96
2021/06/07 10:40:27;;;;;;;21.33;19.43;;;;;;;;;;6304368;22;20435;-95
2021/06/07 10:43:03;;;;;;;20.40;18.50;;;;;;;;;;6297805;22;20479;-96
2021/06/07 10:45:43;;;;;;;18.37;16.77;;;;;;;;;;6270771;22;20389;-94
2021/06/07 10:48:39;;;;;;;17.73;16.13;;;;;;;;;;6296321;22;20423;-96
2021/06/07 10:51:10;;;;;;;16.70;15.10;;;;;;;;;;6299672;22;20412;-96
2021/06/07 10:53:51;;;;;;;16.50;15.10;;;;;;;;;;6296424;22;20421;-96
2021/06/07 10:56:17;;;;;;;15.70;14.50;;;;;;;;;;6261437;22;20456;-96
2021/06/07 11:04:05;;;;;;;13.77;12.47;;;;;;;;;;6270567;22;20452;-96
2021/06/07 11:06:35;;;;;;;13.80;12.50;;;;;;;;;;6292027;22;20436;-94
2021/06/07 11:12:04;;;;;;;12.90;11.70;;;;;;;;;;6297231;22;20409;-96
2021/06/07 11:14:30;;;;;;;12.10;11.20;;;;;;;;;;6296410;22;20462;-96
2021/06/07 11:17:01;;;;;;;13.27;12.07;;;;;;;;;;6297685;22;20415;-95
2021/06/07 11:19:30;;;;;;;14.50;13.20;;;;;;;;;;6296615;22;20451;-96
2021/06/07 11:24:53;;;;;;;16.30;15.00;;;;;;;;;;6188086;22;20466;-96
2021/06/07 11:38:31;;;;;;;13.00;11.87;;;;;;;;;;6275864;22;20449;-93
2021/06/07 11:40:58;;;;;;;13.40;12.17;;;;;;;;;;6293635;22;20457;-96
2021/06/07 11:43:43;;;;;;;14.07;12.10;;;;;;;;;;6294519;22;20401;-96
2021/06/07 11:46:11;;;;;;;13.20;11.90;;;;;;;;;;6293716;22;20409;-95
2021/06/07 11:48:53;;;;;;;17.47;15.87;;;;;;;;;;6294044;22;20442;-96
2021/06/07 11:51:28;;;;;;;16.77;15.30;;;;;;;;;;6293993;22;20417;-96
2021/06/07 11:54:11;;;;;;;17.40;15.80;;;;;;;;;;6294509;22;20414;-96
2021/06/07 11:56:56;;;;;;;18.80;16.90;;;;;;;;;;6295007;22;20396;-96
2021/06/07 11:59:41;;;;;;;17.73;16.00;;;;;;;;;;6270492;22;20430;-96
2021/06/07 12:02:11;;;;;;;19.10;17.33;;;;;;;;;;6290168;22;20417;-96
2021/06/07 12:04:41;;;;;;;19.03;17.43;;;;;;;;;;6293903;22;20965;-96
2021/06/07 12:13:02;;;;;;;17.50;16.00;;;;;;;;;;6294675;22;20416;-96
2021/06/07 12:15:35;;;;;;;19.00;17.00;;;;;;;;;;6285493;22;20464;-94
2021/06/07 12:21:21;;;;;;;19.77;17.80;;;;;;;;;;6295126;22;20425;-96
2021/06/07 12:23:52;;;;;;;20.37;18.47;;;;;;;;;;6295647;22;20396;-96
2021/06/07 12:34:09;;;;;;;19.40;17.70;;;;;;;;;;6219310;22;20230;-95
2021/06/07 12:39:49;;;;;;;18.23;16.50;;;;;;;;;;6276655;22;20487;-96
2021/06/07 12:44:50;;;;;;;19.63;17.80;;;;;;;;;;6294498;22;20414;-96
2021/06/07 12:55:07;;;;;;;16.80;15.40;;;;;;;;;;6233980;22;20215;-95
2021/06/07 12:57:33;;;;;;;18.57;17.07;;;;;;;;;;6259618;22;20434;-95
2021/06/07 13:10:29;;;;;;;15.77;14.30;;;;;;;;;;6265373;22;20449;-96
2021/06/07 13:12:55;;;;;;;14.53;13.27;;;;;;;;;;6292749;22;20404;-95
2021/06/07 13:15:45;;;;;;;16.00;14.40;;;;;;;;;;6250403;22;21291;-96
2021/06/07 13:35:10;;;;;;;16.10;14.70;;;;;;;;;;6242395;22;20454;-96
2021/06/07 13:38:08;;;;;;;15.37;14.07;;;;;;;;;;6302244;22;20460;-96
2021/06/07 14:01:03;;;;;;;12.50;11.50;;;;;;;;;;6263585;23;20468;-96
2021/06/07 14:12:06;;;;;;;12.43;10.33;;;;;;;;;;6257161;22;20453;-96
2021/06/07 14:31:26;;;;;;;10.10;9.20;;;;;;;;;;6271709;22;20456;-96
2021/06/07 15:10:35;;;;;;;10.80;9.80;;;;;;;;;;6181769;23;20453;-96
2021/06/07 15:29:55;;;;;;;11.97;10.77;;;;;;;;;;6266130;23;20492;-96
2021/06/07 15:45:37;;;;;;;15.80;13.43;;;;;;;;;;6277569;22;20467;-96
2021/06/07 15:48:13;;;;;;;14.10;12.33;;;;;;;;;;6246129;22;20444;-96
2021/06/07 16:06:53;;;;;;;18.60;16.33;;;;;;;;;;6264270;22;20456;-95
2021/06/07 16:09:19;;;;;;;20.63;16.23;;;;;;;;;;6287530;22;20430;-96
2021/06/07 16:11:45;;;;;;;16.60;14.90;;;;;;;;;;6289079;22;20464;-96
2021/06/07 16:14:11;;;;;;;25.37;15.10;;;;;;;;;;6289380;22;20412;-95
2021/06/07 16:16:41;;;;;;;17.87;15.10;;;;;;;;;;6288739;22;20447;-96
2021/06/07 16:19:10;;;;;;;19.80;17.00;;;;;;;;;;6293944;22;20434;-96
2021/06/07 16:21:39;;;;;;;17.77;15.20;;;;;;;;;;6295545;22;20470;-96
2021/06/07 16:24:35;;;;;;;16.63;14.93;;;;;;;;;;6262203;22;20458;-96
2021/06/07 19:07:07;;;;;;;16.70;14.93;;;;;;;;;;6199813;22;20524;-96
2021/06/07 19:09:33;;;;;;;24.10;15.90;;;;;;;;;;6288245;22;20417;-96
2021/06/07 19:22:39;;;;;;;13.30;11.10;;;;;;;;;;6290557;22;20453;-96
2021/06/07 19:25:26;;;;;;;15.17;11.67;;;;;;;;;;6304063;22;20400;-96
2021/06/07 19:30:31;;;;;;;12.90;10.40;;;;;;;;;;6257342;23;20510;-96
2021/06/07 19:33:23;;;;;;;16.33;12.53;;;;;;;;;;6291045;22;20487;-96
2021/06/07 19:35:49;;;;;;;12.53;11.07;;;;;;;;;;6289312;22;20416;-96
2021/06/07 19:41:34;;;;;;;13.00;11.60;;;;;;;;;;6300723;22;20483;-96
2021/06/07 19:44:17;;;;;;;13.47;10.90;;;;;;;;;;6300784;22;20408;-96
2021/06/07 19:46:43;;;;;;;15.20;11.30;;;;;;;;;;6293528;22;20816;-94
2021/06/07 19:49:16;;;;;;;15.07;11.23;;;;;;;;;;6290684;22;20443;-96
2021/06/07 19:51:42;;;;;;;14.03;10.90;;;;;;;;;;6292796;22;20894;-96
2021/06/07 19:54:09;;;;;;;15.43;12.00;;;;;;;;;;6289072;22;20440;-96
2021/06/07 19:56:37;;;;;;;13.70;11.33;;;;;;;;;;6289667;22;20413;-96
2021/06/07 20:01:44;;;;;;;17.07;11.23;;;;;;;;;;6293888;22;20451;-96
2021/06/07 20:04:11;;;;;;;14.80;11.60;;;;;;;;;;6289540;22;21218;-96
2021/06/07 20:06:37;;;;;;;13.37;11.97;;;;;;;;;;6288191;22;20405;-95
2021/06/07 20:09:03;;;;;;;16.33;11.60;;;;;;;;;;6286055;22;20403;-96
2021/06/07 20:11:29;;;;;;;13.73;12.13;;;;;;;;;;6288543;22;20406;-95
2021/06/07 20:13:57;;;;;;;15.03;13.07;;;;;;;;;;6288100;22;20410;-95
2021/06/07 20:16:23;;;;;;;15.27;11.80;;;;;;;;;;6291686;22;20420;-95
2021/06/07 20:18:50;;;;;;;13.37;11.67;;;;;;;;;;6289492;22;20419;-94
2021/06/07 20:21:16;;;;;;;17.23;12.03;;;;;;;;;;6291731;22;20401;-96
2021/06/07 20:23:42;;;;;;;18.63;12.50;;;;;;;;;;6291374;22;20406;-96
2021/06/07 20:26:08;;;;;;;14.47;11.80;;;;;;;;;;6291829;22;20420;-95
2021/06/07 20:28:36;;;;;;;13.40;11.93;;;;;;;;;;6290668;22;20543;-95
2021/06/07 20:31:04;;;;;;;14.40;11.70;;;;;;;;;;6292299;22;20466;-94
2021/06/07 20:33:30;;;;;;;13.10;11.60;;;;;;;;;;6290263;22;20439;-94
2021/06/07 20:35:56;;;;;;;14.03;12.60;;;;;;;;;;6288526;22;20397;-93
2021/06/07 20:38:22;;;;;;;14.83;12.13;;;;;;;;;;6287912;22;20459;-95
2021/06/07 20:40:48;;;;;;;18.10;13.40;;;;;;;;;;6289578;22;20452;-94
2021/06/07 20:43:14;;;;;;;17.47;13.00;;;;;;;;;;6291270;22;20471;-95
2021/06/07 20:45:41;;;;;;;15.07;13.53;;;;;;;;;;6289991;22;20425;-94
2021/06/07 20:48:08;;;;;;;16.90;13.13;;;;;;;;;;6283651;22;20417;-95
2021/06/07 20:50:34;;;;;;;15.40;13.33;;;;;;;;;;6282538;22;20413;-94
2021/06/07 20:53:00;;;;;;;15.80;13.67;;;;;;;;;;6290765;22;20469;-95
2021/06/07 20:55:27;;;;;;;14.80;12.57;;;;;;;;;;6287204;22;20416;-94
2021/06/07 20:57:54;;;;;;;13.83;12.30;;;;;;;;;;6291940;22;20745;-96
2021/06/07 21:00:21;;;;;;;15.03;12.77;;;;;;;;;;6288223;22;20456;-95
2021/06/07 21:02:47;;;;;;;16.87;13.60;;;;;;;;;;6290112;22;20404;-96
2021/06/07 21:05:15;;;;;;;13.43;12.00;;;;;;;;;;6289665;22;20728;-96
2021/06/07 21:07:41;;;;;;;15.37;12.80;;;;;;;;;;6293345;22;20413;-95
2021/06/07 21:10:08;;;;;;;14.13;12.70;;;;;;;;;;6292589;22;20418;-95
2021/06/07 21:12:34;;;;;;;13.60;11.93;;;;;;;;;;6294026;22;20409;-96
2021/06/07 21:15:00;;;;;;;20.97;12.13;;;;;;;;;;6294021;22;20417;-96
2021/06/07 21:17:27;;;;;;;15.87;12.80;;;;;;;;;;6289079;22;20477;-96
2021/06/07 21:19:53;;;;;;;15.90;13.27;;;;;;;;;;6290864;22;20454;-96
2021/06/07 21:22:20;;;;;;;15.30;12.60;;;;;;;;;;6289351;22;20408;-94
2021/06/07 21:24:46;;;;;;;16.50;13.93;;;;;;;;;;6290212;22;20413;-94
2021/06/07 21:27:12;;;;;;;16.40;14.10;;;;;;;;;;6288914;22;20409;-95
2021/06/07 21:29:38;;;;;;;21.17;15.80;;;;;;;;;;6293500;22;20413;-95
2021/06/07 21:32:04;;;;;;;17.03;14.20;;;;;;;;;;6297671;22;20427;-95
2021/06/07 21:34:33;;;;;;;16.57;14.67;;;;;;;;;;6302979;22;20397;-95
2021/06/07 21:36:59;;;;;;;18.60;15.20;;;;;;;;;;6286013;22;20405;-94
2021/06/07 21:39:35;;;;;;;24.77;15.50;;;;;;;;;;6287611;22;20440;-95
2021/06/07 21:42:01;;;;;;;15.97;14.27;;;;;;;;;;6287615;22;20435;-95
2021/06/07 21:44:27;;;;;;;17.80;15.73;;;;;;;;;;6289293;22;20410;-94
2021/06/07 21:46:53;;;;;;;20.33;15.00;;;;;;;;;;6289077;22;20409;-94
2021/06/07 21:49:19;;;;;;;20.63;15.57;;;;;;;;;;6289883;22;20424;-95
2021/06/07 21:51:46;;;;;;;20.43;16.17;;;;;;;;;;6286594;22;20425;-96
2021/06/07 21:54:12;;;;;;;17.20;14.43;;;;;;;;;;6286513;22;20412;-95
2021/06/07 21:56:39;;;;;;;20.03;14.90;;;;;;;;;;6289736;22;20416;-95
2021/06/07 21:59:05;;;;;;;19.80;16.20;;;;;;;;;;6288314;22;22357;-96
2021/06/07 22:01:31;;;;;;;16.87;14.37;;;;;;;;;;6289404;22;20409;-96
2021/06/07 22:03:57;;;;;;;18.00;15.47;;;;;;;;;;6288120;22;20424;-96
2021/06/07 22:06:27;;;;;;;17.30;15.27;;;;;;;;;;6290312;22;20412;-96
2021/06/07 22:08:53;;;;;;;20.00;15.90;;;;;;;;;;6287574;22;21044;-96
2021/06/07 22:11:19;;;;;;;18.30;16.33;;;;;;;;;;6288611;22;20412;-94
2021/06/07 22:13:46;;;;;;;21.47;17.33;;;;;;;;;;6285556;22;20428;-95
2021/06/07 22:16:12;;;;;;;21.20;15.97;;;;;;;;;;6288237;22;20417;-94
2021/06/07 22:18:39;;;;;;;20.00;16.47;;;;;;;;;;6287274;22;20437;-95
2021/06/07 22:21:05;;;;;;;20.60;17.63;;;;;;;;;;6289066;22;20456;-95
2021/06/07 22:23:31;;;;;;;19.83;15.73;;;;;;;;;;6287098;22;20415;-96
2021/06/07 22:25:57;;;;;;;26.20;18.53;;;;;;;;;;6288545;22;20427;-95
2021/06/07 22:28:23;;;;;;;23.30;17.00;;;;;;;;;;6286648;22;20424;-95
2021/06/07 22:30:53;;;;;;;20.30;15.43;;;;;;;;;;6290005;22;20397;-95
2021/06/07 22:33:20;;;;;;;21.30;16.50;;;;;;;;;;6289310;22;20445;-95
2021/06/07 22:35:46;;;;;;;18.30;15.73;;;;;;;;;;6288158;22;20409;-95
2021/06/07 22:38:13;;;;;;;17.90;15.20;;;;;;;;;;6289927;22;20492;-95
2021/06/07 22:40:39;;;;;;;17.17;14.30;;;;;;;;;;6287337;22;20471;-93
2021/06/07 22:43:05;;;;;;;15.93;14.10;;;;;;;;;;6288939;22;20472;-94
2021/06/07 22:45:31;;;;;;;17.93;15.47;;;;;;;;;;6286747;22;20428;-94
2021/06/07 22:47:59;;;;;;;17.97;15.33;;;;;;;;;;6290162;22;20405;-93
2021/06/07 22:50:25;;;;;;;20.67;14.93;;;;;;;;;;6287321;22;20420;-94
2021/06/07 22:52:51;;;;;;;26.80;15.60;;;;;;;;;;6288848;22;20420;-95
2021/06/07 22:55:17;;;;;;;19.80;15.20;;;;;;;;;;6288209;22;20417;-95
2021/06/07 22:57:43;;;;;;;18.70;15.03;;;;;;;;;;6288957;22;20515;-95
2021/06/07 23:00:10;;;;;;;18.27;14.97;;;;;;;;;;6288522;22;20440;-95
2021/06/07 23:02:36;;;;;;;18.40;13.63;;;;;;;;;;6288409;22;20413;-95
2021/06/07 23:05:04;;;;;;;20.50;14.60;;;;;;;;;;6287205;22;20913;-96
2021/06/07 23:07:30;;;;;;;19.33;14.73;;;;;;;;;;6287348;22;20436;-95
2021/06/07 23:09:56;;;;;;;21.90;15.70;;;;;;;;;;6286839;22;20429;-96
2021/06/07 23:12:22;;;;;;;16.07;14.33;;;;;;;;;;6289137;22;20431;-95
2021/06/07 23:14:48;;;;;;;17.80;14.30;;;;;;;;;;6288111;22;20420;-95
2021/06/07 23:17:14;;;;;;;18.80;15.30;;;;;;;;;;6285456;22;20401;-96
2021/06/07 23:19:41;;;;;;;19.77;14.97;;;;;;;;;;6286603;22;20801;-96
2021/06/07 23:22:08;;;;;;;18.00;14.27;;;;;;;;;;6285315;22;20424;-96
2021/06/07 23:24:34;;;;;;;16.20;14.00;;;;;;;;;;6288225;22;20405;-96
2021/06/07 23:27:00;;;;;;;19.20;15.90;;;;;;;;;;6285496;22;20411;-96
2021/06/07 23:29:26;;;;;;;23.17;14.83;;;;;;;;;;6286244;22;20409;-95
2021/06/07 23:31:52;;;;;;;19.70;14.10;;;;;;;;;;6284314;22;20429;-96
2021/06/07 23:34:20;;;;;;;25.30;16.10;;;;;;;;;;6286537;22;20406;-94
2021/06/07 23:36:46;;;;;;;18.00;15.00;;;;;;;;;;6285542;22;20464;-95
2021/06/07 23:39:14;;;;;;;19.97;14.93;;;;;;;;;;6286794;22;20409;-94
2021/06/07 23:41:40;;;;;;;19.13;15.60;;;;;;;;;;6287193;22;20468;-93
2021/06/07 23:44:06;;;;;;;17.60;14.43;;;;;;;;;;6288436;22;20408;-93
2021/06/07 23:46:32;;;;;;;20.70;15.70;;;;;;;;;;6286954;22;20405;-94
2021/06/07 23:48:59;;;;;;;23.40;15.63;;;;;;;;;;6288550;22;20465;-95
2021/06/07 23:51:27;;;;;;;21.47;16.20;;;;;;;;;;6287096;22;20444;-94
2021/06/07 23:53:53;;;;;;;17.90;15.43;;;;;;;;;;6288139;22;20409;-93
2021/06/07 23:56:21;;;;;;;16.53;13.93;;;;;;;;;;6286450;22;20413;-93
2021/06/07 23:58:47;;;;;;;16.10;14.40;;;;;;;;;;6284830;22;20405;-93
